sensor_id;sensor_type;location;lat;lon;timestamp;P1;durP1;ratioP1;P2;durP2;ratioP2
6259;SDS011;3163;51.516;4.000;2022-12-22T00:00:19;8.90;;;6.03;;
6259;SDS011;3163;51.516;4.000;2022-12-22T00:03:07;8.93;;;6.77;;
6259;SDS011;3163;51.516;4.000;2022-12-22T00:05:55;8.93;;;6.80;;
6259;SDS011;3163;51.516;4.000;2022-12-22T00:08:40;10.10;;;6.63;;
6259;SDS011;3163;51.516;4.000;2022-12-22T00:11:24;16.30;;;8.73;;
6259;SDS011;3163;51.516;4.000;2022-12-22T00:14:09;11.87;;;6.63;;
6259;SDS011;3163;51.516;4.000;2022-12-22T00:16:54;15.80;;;9.33;;
6259;SDS011;3163;51.516;4.000;2022-12-22T00:19:40;19.23;;;9.83;;
6259;SDS011;3163;51.516;4.000;2022-12-22T00:22:25;12.50;;;7.47;;
6259;SDS011;3163;51.516;4.000;2022-12-22T00:25:14;14.73;;;8.83;;
6259;SDS011;3163;51.516;4.000;2022-12-22T00:27:59;9.30;;;7.10;;
6259;SDS011;3163;51.516;4.000;2022-12-22T00:30:45;17.97;;;9.73;;
6259;SDS011;3163;51.516;4.000;2022-12-22T00:33:30;16.20;;;9.47;;
6259;SDS011;3163;51.516;4.000;2022-12-22T00:36:14;15.23;;;9.73;;
6259;SDS011;3163;51.516;4.000;2022-12-22T00:38:59;15.60;;;9.30;;
6259;SDS011;3163;51.516;4.000;2022-12-22T00:41:43;18.63;;;10.53;;
6259;SDS011;3163;51.516;4.000;2022-12-22T00:44:27;14.93;;;10.00;;
6259;SDS011;3163;51.516;4.000;2022-12-22T00:47:12;15.63;;;8.20;;
6259;SDS011;3163;51.516;4.000;2022-12-22T00:50:01;15.80;;;8.47;;
6259;SDS011;3163;51.516;4.000;2022-12-22T00:52:45;17.70;;;9.60;;
6259;SDS011;3163;51.516;4.000;2022-12-22T00:55:29;17.43;;;10.23;;
6259;SDS011;3163;51.516;4.000;2022-12-22T00:58:15;13.57;;;9.17;;
6259;SDS011;3163;51.516;4.000;2022-12-22T01:01:02;13.67;;;8.60;;
6259;SDS011;3163;51.516;4.000;2022-12-22T01:03:46;17.07;;;9.60;;
6259;SDS011;3163;51.516;4.000;2022-12-22T01:06:31;12.70;;;7.47;;
6259;SDS011;3163;51.516;4.000;2022-12-22T01:09:18;7.53;;;5.07;;
6259;SDS011;3163;51.516;4.000;2022-12-22T01:12:14;7.00;;;4.50;;
6259;SDS011;3163;51.516;4.000;2022-12-22T01:15:08;7.73;;;5.30;;
6259;SDS011;3163;51.516;4.000;2022-12-22T01:17:54;8.67;;;5.77;;
6259;SDS011;3163;51.516;4.000;2022-12-22T01:20:38;15.40;;;9.87;;
6259;SDS011;3163;51.516;4.000;2022-12-22T01:23:22;20.30;;;12.90;;
6259;SDS011;3163;51.516;4.000;2022-12-22T01:26:09;26.03;;;14.80;;
6259;SDS011;3163;51.516;4.000;2022-12-22T01:28:53;26.93;;;14.83;;
6259;SDS011;3163;51.516;4.000;2022-12-22T01:31:37;26.90;;;15.60;;
6259;SDS011;3163;51.516;4.000;2022-12-22T01:34:22;23.50;;;14.53;;
6259;SDS011;3163;51.516;4.000;2022-12-22T01:37:06;19.77;;;12.47;;
6259;SDS011;3163;51.516;4.000;2022-12-22T01:39:50;19.03;;;12.00;;
6259;SDS011;3163;51.516;4.000;2022-12-22T01:42:34;23.03;;;12.57;;
6259;SDS011;3163;51.516;4.000;2022-12-22T01:48:11;20.67;;;12.20;;
6259;SDS011;3163;51.516;4.000;2022-12-22T01:51:00;15.23;;;10.07;;
6259;SDS011;3163;51.516;4.000;2022-12-22T01:53:47;19.53;;;11.47;;
6259;SDS011;3163;51.516;4.000;2022-12-22T01:56:32;17.73;;;11.27;;
6259;SDS011;3163;51.516;4.000;2022-12-22T01:59:16;14.00;;;10.07;;
6259;SDS011;3163;51.516;4.000;2022-12-22T02:02:00;15.87;;;10.40;;
6259;SDS011;3163;51.516;4.000;2022-12-22T02:04:49;17.90;;;10.77;;
6259;SDS011;3163;51.516;4.000;2022-12-22T02:16:58;18.93;;;12.20;;
6259;SDS011;3163;51.516;4.000;2022-12-22T02:22:46;17.23;;;11.53;;
6259;SDS011;3163;51.516;4.000;2022-12-22T02:25:36;17.67;;;10.53;;
6259;SDS011;3163;51.516;4.000;2022-12-22T02:28:27;15.17;;;10.33;;
6259;SDS011;3163;51.516;4.000;2022-12-22T02:31:13;18.50;;;10.77;;
6259;SDS011;3163;51.516;4.000;2022-12-22T02:33:57;16.43;;;10.67;;
6259;SDS011;3163;51.516;4.000;2022-12-22T02:40:06;14.20;;;9.43;;
6259;SDS011;3163;51.516;4.000;2022-12-22T02:46:17;10.30;;;7.13;;
6259;SDS011;3163;51.516;4.000;2022-12-22T02:49:20;5.23;;;4.10;;
6259;SDS011;3163;51.516;4.000;2022-12-22T02:52:11;12.13;;;8.30;;
6259;SDS011;3163;51.516;4.000;2022-12-22T02:55:02;14.23;;;8.97;;
6259;SDS011;3163;51.516;4.000;2022-12-22T02:57:49;20.07;;;9.13;;
6259;SDS011;3163;51.516;4.000;2022-12-22T03:00:34;12.30;;;7.07;;
6259;SDS011;3163;51.516;4.000;2022-12-22T03:03:20;11.53;;;8.00;;
6259;SDS011;3163;51.516;4.000;2022-12-22T03:06:04;7.50;;;5.00;;
6259;SDS011;3163;51.516;4.000;2022-12-22T03:08:49;16.27;;;9.00;;
6259;SDS011;3163;51.516;4.000;2022-12-22T03:11:33;13.53;;;8.47;;
6259;SDS011;3163;51.516;4.000;2022-12-22T03:14:17;15.47;;;9.33;;
6259;SDS011;3163;51.516;4.000;2022-12-22T03:17:02;7.57;;;5.20;;
6259;SDS011;3163;51.516;4.000;2022-12-22T03:19:47;10.07;;;8.20;;
6259;SDS011;3163;51.516;4.000;2022-12-22T03:22:31;9.60;;;6.37;;
6259;SDS011;3163;51.516;4.000;2022-12-22T03:25:15;9.23;;;6.27;;
6259;SDS011;3163;51.516;4.000;2022-12-22T03:28:00;17.97;;;7.17;;
6259;SDS011;3163;51.516;4.000;2022-12-22T03:30:27;4.83;;;4.23;;
6259;SDS011;3163;51.516;4.000;2022-12-22T03:32:53;4.77;;;3.63;;
6259;SDS011;3163;51.516;4.000;2022-12-22T03:35:18;13.90;;;8.53;;
6259;SDS011;3163;51.516;4.000;2022-12-22T03:37:44;12.03;;;7.90;;
6259;SDS011;3163;51.516;4.000;2022-12-22T03:40:10;5.63;;;4.10;;
6259;SDS011;3163;51.516;4.000;2022-12-22T03:42:35;8.43;;;5.53;;
6259;SDS011;3163;51.516;4.000;2022-12-22T03:45:20;5.77;;;3.93;;
6259;SDS011;3163;51.516;4.000;2022-12-22T03:48:04;12.80;;;8.60;;
6259;SDS011;3163;51.516;4.000;2022-12-22T03:50:29;5.47;;;3.63;;
6259;SDS011;3163;51.516;4.000;2022-12-22T03:52:55;4.67;;;3.57;;
6259;SDS011;3163;51.516;4.000;2022-12-22T03:55:20;4.80;;;3.70;;
6259;SDS011;3163;51.516;4.000;2022-12-22T03:57:46;4.07;;;2.97;;
6259;SDS011;3163;51.516;4.000;2022-12-22T04:00:12;8.93;;;3.80;;
6259;SDS011;3163;51.516;4.000;2022-12-22T04:02:38;5.73;;;4.23;;
6259;SDS011;3163;51.516;4.000;2022-12-22T04:05:03;5.30;;;3.50;;
6259;SDS011;3163;51.516;4.000;2022-12-22T04:07:29;6.90;;;4.80;;
6259;SDS011;3163;51.516;4.000;2022-12-22T04:09:55;8.10;;;5.23;;
6259;SDS011;3163;51.516;4.000;2022-12-22T04:12:39;7.30;;;5.20;;
6259;SDS011;3163;51.516;4.000;2022-12-22T04:15:27;9.37;;;6.03;;
6259;SDS011;3163;51.516;4.000;2022-12-22T04:17:54;6.37;;;3.97;;
6259;SDS011;3163;51.516;4.000;2022-12-22T04:20:20;8.23;;;4.10;;
6259;SDS011;3163;51.516;4.000;2022-12-22T04:22:47;6.67;;;4.23;;
6259;SDS011;3163;51.516;4.000;2022-12-22T04:25:13;6.03;;;3.93;;
6259;SDS011;3163;51.516;4.000;2022-12-22T04:27:39;8.03;;;5.03;;
6259;SDS011;3163;51.516;4.000;2022-12-22T04:30:05;7.17;;;4.23;;
6259;SDS011;3163;51.516;4.000;2022-12-22T04:32:32;4.93;;;3.70;;
6259;SDS011;3163;51.516;4.000;2022-12-22T04:34:57;6.13;;;3.53;;
6259;SDS011;3163;51.516;4.000;2022-12-22T04:37:23;7.57;;;4.20;;
6259;SDS011;3163;51.516;4.000;2022-12-22T04:39:49;7.53;;;4.47;;
6259;SDS011;3163;51.516;4.000;2022-12-22T04:42:14;6.70;;;4.47;;
6259;SDS011;3163;51.516;4.000;2022-12-22T04:44:40;7.03;;;4.63;;
6259;SDS011;3163;51.516;4.000;2022-12-22T04:47:05;10.40;;;5.70;;
6259;SDS011;3163;51.516;4.000;2022-12-22T04:49:31;6.10;;;3.80;;
6259;SDS011;3163;51.516;4.000;2022-12-22T04:51:57;7.50;;;4.40;;
6259;SDS011;3163;51.516;4.000;2022-12-22T04:54:22;11.23;;;5.63;;
6259;SDS011;3163;51.516;4.000;2022-12-22T04:56:49;6.47;;;3.90;;
6259;SDS011;3163;51.516;4.000;2022-12-22T04:59:14;7.40;;;3.63;;
6259;SDS011;3163;51.516;4.000;2022-12-22T05:01:40;13.37;;;6.20;;
6259;SDS011;3163;51.516;4.000;2022-12-22T05:04:06;17.13;;;8.23;;
6259;SDS011;3163;51.516;4.000;2022-12-22T05:06:31;11.87;;;5.73;;
6259;SDS011;3163;51.516;4.000;2022-12-22T05:08:57;10.73;;;5.77;;
6259;SDS011;3163;51.516;4.000;2022-12-22T05:11:23;8.40;;;4.73;;
6259;SDS011;3163;51.516;4.000;2022-12-22T05:13:48;11.77;;;7.10;;
6259;SDS011;3163;51.516;4.000;2022-12-22T05:16:15;6.87;;;4.43;;
6259;SDS011;3163;51.516;4.000;2022-12-22T05:18:42;9.63;;;5.90;;
6259;SDS011;3163;51.516;4.000;2022-12-22T05:21:13;7.60;;;5.23;;
6259;SDS011;3163;51.516;4.000;2022-12-22T05:23:40;5.40;;;3.43;;
6259;SDS011;3163;51.516;4.000;2022-12-22T05:26:06;7.13;;;4.60;;
6259;SDS011;3163;51.516;4.000;2022-12-22T05:28:32;6.43;;;4.83;;
6259;SDS011;3163;51.516;4.000;2022-12-22T05:31:05;9.17;;;5.33;;
6259;SDS011;3163;51.516;4.000;2022-12-22T05:33:32;9.03;;;5.33;;
6259;SDS011;3163;51.516;4.000;2022-12-22T05:35:57;10.23;;;5.53;;
6259;SDS011;3163;51.516;4.000;2022-12-22T05:38:23;9.33;;;6.03;;
6259;SDS011;3163;51.516;4.000;2022-12-22T05:40:49;7.73;;;5.10;;
6259;SDS011;3163;51.516;4.000;2022-12-22T05:43:14;9.07;;;5.00;;
6259;SDS011;3163;51.516;4.000;2022-12-22T05:45:41;8.40;;;5.40;;
6259;SDS011;3163;51.516;4.000;2022-12-22T05:48:08;8.17;;;4.77;;
6259;SDS011;3163;51.516;4.000;2022-12-22T05:50:34;7.83;;;5.63;;
6259;SDS011;3163;51.516;4.000;2022-12-22T05:52:59;7.97;;;5.33;;
6259;SDS011;3163;51.516;4.000;2022-12-22T05:55:25;11.47;;;6.27;;
6259;SDS011;3163;51.516;4.000;2022-12-22T05:57:51;7.57;;;4.77;;
6259;SDS011;3163;51.516;4.000;2022-12-22T06:00:17;7.73;;;5.17;;
6259;SDS011;3163;51.516;4.000;2022-12-22T06:02:43;11.07;;;5.43;;
6259;SDS011;3163;51.516;4.000;2022-12-22T06:05:09;15.43;;;8.10;;
6259;SDS011;3163;51.516;4.000;2022-12-22T06:07:36;9.17;;;5.90;;
6259;SDS011;3163;51.516;4.000;2022-12-22T06:10:03;9.63;;;5.30;;
6259;SDS011;3163;51.516;4.000;2022-12-22T06:12:32;14.33;;;6.87;;
6259;SDS011;3163;51.516;4.000;2022-12-22T06:14:58;12.90;;;6.37;;
6259;SDS011;3163;51.516;4.000;2022-12-22T06:17:24;7.53;;;5.57;;
6259;SDS011;3163;51.516;4.000;2022-12-22T06:19:49;11.50;;;6.70;;
6259;SDS011;3163;51.516;4.000;2022-12-22T06:22:15;6.60;;;4.97;;
6259;SDS011;3163;51.516;4.000;2022-12-22T06:24:41;9.70;;;5.73;;
6259;SDS011;3163;51.516;4.000;2022-12-22T06:27:06;13.47;;;6.00;;
6259;SDS011;3163;51.516;4.000;2022-12-22T06:29:32;11.27;;;6.17;;
6259;SDS011;3163;51.516;4.000;2022-12-22T06:31:58;11.17;;;6.17;;
6259;SDS011;3163;51.516;4.000;2022-12-22T06:34:24;10.67;;;5.53;;
6259;SDS011;3163;51.516;4.000;2022-12-22T06:36:49;7.00;;;4.47;;
6259;SDS011;3163;51.516;4.000;2022-12-22T06:39:15;7.03;;;4.80;;
6259;SDS011;3163;51.516;4.000;2022-12-22T06:41:41;9.00;;;5.67;;
6259;SDS011;3163;51.516;4.000;2022-12-22T06:44:26;8.37;;;5.23;;
6259;SDS011;3163;51.516;4.000;2022-12-22T06:46:52;7.67;;;5.23;;
6259;SDS011;3163;51.516;4.000;2022-12-22T06:49:17;8.13;;;5.93;;
6259;SDS011;3163;51.516;4.000;2022-12-22T06:51:43;7.37;;;4.87;;
6259;SDS011;3163;51.516;4.000;2022-12-22T06:54:09;8.37;;;4.40;;
6259;SDS011;3163;51.516;4.000;2022-12-22T06:56:35;6.37;;;4.67;;
6259;SDS011;3163;51.516;4.000;2022-12-22T06:59:01;9.33;;;5.30;;
6259;SDS011;3163;51.516;4.000;2022-12-22T07:01:26;6.90;;;5.00;;
6259;SDS011;3163;51.516;4.000;2022-12-22T07:03:52;9.53;;;5.30;;
6259;SDS011;3163;51.516;4.000;2022-12-22T07:06:18;9.27;;;4.83;;
6259;SDS011;3163;51.516;4.000;2022-12-22T07:08:44;10.17;;;5.67;;
6259;SDS011;3163;51.516;4.000;2022-12-22T07:11:10;7.40;;;4.67;;
6259;SDS011;3163;51.516;4.000;2022-12-22T07:13:36;8.23;;;5.03;;
6259;SDS011;3163;51.516;4.000;2022-12-22T07:16:03;11.43;;;5.23;;
6259;SDS011;3163;51.516;4.000;2022-12-22T07:18:30;6.77;;;4.30;;
6259;SDS011;3163;51.516;4.000;2022-12-22T07:20:59;6.20;;;4.60;;
6259;SDS011;3163;51.516;4.000;2022-12-22T07:23:26;8.77;;;5.20;;
6259;SDS011;3163;51.516;4.000;2022-12-22T07:25:53;6.67;;;4.73;;
6259;SDS011;3163;51.516;4.000;2022-12-22T07:28:18;7.30;;;4.63;;
6259;SDS011;3163;51.516;4.000;2022-12-22T07:30:44;7.53;;;3.93;;
6259;SDS011;3163;51.516;4.000;2022-12-22T07:33:10;8.23;;;3.80;;
6259;SDS011;3163;51.516;4.000;2022-12-22T07:35:35;6.97;;;4.40;;
6259;SDS011;3163;51.516;4.000;2022-12-22T07:38:01;10.00;;;4.40;;
6259;SDS011;3163;51.516;4.000;2022-12-22T07:40:27;6.37;;;4.20;;
6259;SDS011;3163;51.516;4.000;2022-12-22T07:42:58;6.10;;;4.40;;
6259;SDS011;3163;51.516;4.000;2022-12-22T07:45:25;7.67;;;4.10;;
6259;SDS011;3163;51.516;4.000;2022-12-22T07:47:57;7.30;;;4.67;;
6259;SDS011;3163;51.516;4.000;2022-12-22T07:50:23;8.47;;;4.07;;
6259;SDS011;3163;51.516;4.000;2022-12-22T07:52:49;6.50;;;4.00;;
6259;SDS011;3163;51.516;4.000;2022-12-22T07:55:19;5.63;;;3.97;;
6259;SDS011;3163;51.516;4.000;2022-12-22T07:57:45;5.27;;;3.77;;
6259;SDS011;3163;51.516;4.000;2022-12-22T08:00:12;5.00;;;3.80;;
6259;SDS011;3163;51.516;4.000;2022-12-22T08:02:38;6.10;;;3.57;;
6259;SDS011;3163;51.516;4.000;2022-12-22T08:05:04;4.77;;;3.43;;
6259;SDS011;3163;51.516;4.000;2022-12-22T08:07:30;6.17;;;3.40;;
6259;SDS011;3163;51.516;4.000;2022-12-22T08:09:57;5.20;;;3.67;;
6259;SDS011;3163;51.516;4.000;2022-12-22T08:12:23;4.13;;;3.23;;
6259;SDS011;3163;51.516;4.000;2022-12-22T08:14:49;4.77;;;3.33;;
6259;SDS011;3163;51.516;4.000;2022-12-22T08:17:14;5.80;;;3.63;;
6259;SDS011;3163;51.516;4.000;2022-12-22T08:19:40;4.57;;;3.30;;
6259;SDS011;3163;51.516;4.000;2022-12-22T08:22:05;4.83;;;3.87;;
6259;SDS011;3163;51.516;4.000;2022-12-22T08:24:31;3.97;;;2.70;;
6259;SDS011;3163;51.516;4.000;2022-12-22T08:26:58;5.00;;;3.90;;
6259;SDS011;3163;51.516;4.000;2022-12-22T08:29:46;9.53;;;4.40;;
6259;SDS011;3163;51.516;4.000;2022-12-22T08:32:14;5.17;;;3.60;;
6259;SDS011;3163;51.516;4.000;2022-12-22T08:34:40;5.73;;;3.87;;
6259;SDS011;3163;51.516;4.000;2022-12-22T08:37:08;4.43;;;3.10;;
6259;SDS011;3163;51.516;4.000;2022-12-22T08:39:39;4.47;;;3.33;;
6259;SDS011;3163;51.516;4.000;2022-12-22T08:42:07;5.87;;;3.57;;
6259;SDS011;3163;51.516;4.000;2022-12-22T08:44:35;5.37;;;4.13;;
6259;SDS011;3163;51.516;4.000;2022-12-22T08:47:04;4.83;;;3.33;;
6259;SDS011;3163;51.516;4.000;2022-12-22T08:49:30;5.67;;;3.50;;
6259;SDS011;3163;51.516;4.000;2022-12-22T08:51:56;5.67;;;3.40;;
6259;SDS011;3163;51.516;4.000;2022-12-22T08:54:22;3.87;;;3.10;;
6259;SDS011;3163;51.516;4.000;2022-12-22T08:56:48;4.13;;;3.17;;
6259;SDS011;3163;51.516;4.000;2022-12-22T08:59:14;8.10;;;3.57;;
6259;SDS011;3163;51.516;4.000;2022-12-22T09:01:41;4.90;;;3.13;;
6259;SDS011;3163;51.516;4.000;2022-12-22T09:04:08;3.13;;;2.53;;
6259;SDS011;3163;51.516;4.000;2022-12-22T09:06:37;3.33;;;2.93;;
6259;SDS011;3163;51.516;4.000;2022-12-22T09:09:03;3.87;;;2.80;;
6259;SDS011;3163;51.516;4.000;2022-12-22T09:11:30;7.03;;;3.03;;
6259;SDS011;3163;51.516;4.000;2022-12-22T09:13:57;7.77;;;3.33;;
6259;SDS011;3163;51.516;4.000;2022-12-22T09:16:24;3.10;;;2.80;;
6259;SDS011;3163;51.516;4.000;2022-12-22T09:18:52;4.13;;;3.40;;
6259;SDS011;3163;51.516;4.000;2022-12-22T09:21:18;4.87;;;3.10;;
6259;SDS011;3163;51.516;4.000;2022-12-22T09:23:43;3.70;;;2.87;;
6259;SDS011;3163;51.516;4.000;2022-12-22T09:26:10;4.57;;;3.37;;
6259;SDS011;3163;51.516;4.000;2022-12-22T09:28:37;4.30;;;3.23;;
6259;SDS011;3163;51.516;4.000;2022-12-22T09:31:03;6.00;;;3.87;;
6259;SDS011;3163;51.516;4.000;2022-12-22T09:33:29;3.40;;;2.97;;
6259;SDS011;3163;51.516;4.000;2022-12-22T09:35:56;4.40;;;3.30;;
6259;SDS011;3163;51.516;4.000;2022-12-22T09:38:24;4.40;;;2.40;;
6259;SDS011;3163;51.516;4.000;2022-12-22T09:40:51;5.53;;;2.73;;
6259;SDS011;3163;51.516;4.000;2022-12-22T09:43:16;3.97;;;3.23;;
6259;SDS011;3163;51.516;4.000;2022-12-22T09:45:45;8.80;;;3.43;;
6259;SDS011;3163;51.516;4.000;2022-12-22T09:48:11;1.97;;;1.67;;
6259;SDS011;3163;51.516;4.000;2022-12-22T09:50:39;2.80;;;2.53;;
6259;SDS011;3163;51.516;4.000;2022-12-22T09:53:06;3.90;;;2.23;;
6259;SDS011;3163;51.516;4.000;2022-12-22T09:55:41;3.10;;;2.60;;
6259;SDS011;3163;51.516;4.000;2022-12-22T09:58:31;3.33;;;2.63;;
6259;SDS011;3163;51.516;4.000;2022-12-22T10:06:21;4.07;;;2.80;;
6259;SDS011;3163;51.516;4.000;2022-12-22T10:09:13;4.67;;;3.43;;
6259;SDS011;3163;51.516;4.000;2022-12-22T10:11:51;4.30;;;3.13;;
6259;SDS011;3163;51.516;4.000;2022-12-22T10:14:18;5.60;;;3.07;;
6259;SDS011;3163;51.516;4.000;2022-12-22T10:16:44;5.20;;;3.40;;
6259;SDS011;3163;51.516;4.000;2022-12-22T10:19:10;6.03;;;3.83;;
6259;SDS011;3163;51.516;4.000;2022-12-22T10:21:38;2.93;;;1.90;;
6259;SDS011;3163;51.516;4.000;2022-12-22T10:24:17;4.47;;;3.77;;
6259;SDS011;3163;51.516;4.000;2022-12-22T10:27:00;6.17;;;4.60;;
6259;SDS011;3163;51.516;4.000;2022-12-22T10:29:28;6.70;;;4.30;;
6259;SDS011;3163;51.516;4.000;2022-12-22T10:32:03;5.17;;;3.97;;
6259;SDS011;3163;51.516;4.000;2022-12-22T10:34:36;5.30;;;3.10;;
6259;SDS011;3163;51.516;4.000;2022-12-22T10:37:02;5.20;;;3.80;;
6259;SDS011;3163;51.516;4.000;2022-12-22T10:39:31;6.60;;;3.53;;
6259;SDS011;3163;51.516;4.000;2022-12-22T10:42:09;8.47;;;4.90;;
6259;SDS011;3163;51.516;4.000;2022-12-22T10:44:37;7.30;;;4.27;;
6259;SDS011;3163;51.516;4.000;2022-12-22T10:47:12;4.63;;;3.33;;
6259;SDS011;3163;51.516;4.000;2022-12-22T10:49:47;7.27;;;4.50;;
6259;SDS011;3163;51.516;4.000;2022-12-22T10:52:20;6.07;;;4.67;;
6259;SDS011;3163;51.516;4.000;2022-12-22T10:54:48;8.60;;;4.50;;
6259;SDS011;3163;51.516;4.000;2022-12-22T10:59:50;8.07;;;4.83;;
6259;SDS011;3163;51.516;4.000;2022-12-22T11:04:46;10.30;;;5.00;;
6259;SDS011;3163;51.516;4.000;2022-12-22T11:07:13;7.80;;;4.30;;
6259;SDS011;3163;51.516;4.000;2022-12-22T11:09:38;7.90;;;5.37;;
6259;SDS011;3163;51.516;4.000;2022-12-22T11:12:06;9.50;;;6.37;;
6259;SDS011;3163;51.516;4.000;2022-12-22T11:17:42;7.77;;;5.00;;
6259;SDS011;3163;51.516;4.000;2022-12-22T11:28:15;10.07;;;5.77;;
6259;SDS011;3163;51.516;4.000;2022-12-22T11:31:08;8.60;;;5.33;;
6259;SDS011;3163;51.516;4.000;2022-12-22T11:44:38;12.43;;;6.90;;
6259;SDS011;3163;51.516;4.000;2022-12-22T11:49:50;8.77;;;5.47;;
6259;SDS011;3163;51.516;4.000;2022-12-22T11:55:40;14.13;;;5.60;;
6259;SDS011;3163;51.516;4.000;2022-12-22T11:58:12;11.37;;;5.53;;
6259;SDS011;3163;51.516;4.000;2022-12-22T12:20:38;10.27;;;6.13;;
6259;SDS011;3163;51.516;4.000;2022-12-22T12:26:22;7.93;;;6.50;;
6259;SDS011;3163;51.516;4.000;2022-12-22T12:32:01;10.47;;;6.07;;
6259;SDS011;3163;51.516;4.000;2022-12-22T12:34:28;9.87;;;6.77;;
6259;SDS011;3163;51.516;4.000;2022-12-22T12:37:01;10.57;;;6.73;;
6259;SDS011;3163;51.516;4.000;2022-12-22T12:39:37;8.70;;;6.20;;
6259;SDS011;3163;51.516;4.000;2022-12-22T12:50:49;7.63;;;5.90;;
6259;SDS011;3163;51.516;4.000;2022-12-22T12:53:16;9.03;;;6.37;;
6259;SDS011;3163;51.516;4.000;2022-12-22T13:01:07;11.00;;;5.90;;
6259;SDS011;3163;51.516;4.000;2022-12-22T13:03:57;8.07;;;5.27;;
6259;SDS011;3163;51.516;4.000;2022-12-22T13:09:10;8.57;;;4.23;;
6259;SDS011;3163;51.516;4.000;2022-12-22T13:11:44;6.77;;;4.97;;
6259;SDS011;3163;51.516;4.000;2022-12-22T13:14:10;7.37;;;4.90;;
6259;SDS011;3163;51.516;4.000;2022-12-22T13:20:02;7.60;;;4.60;;
6259;SDS011;3163;51.516;4.000;2022-12-22T13:22:28;5.83;;;4.63;;
6259;SDS011;3163;51.516;4.000;2022-12-22T13:24:54;5.17;;;4.07;;
6259;SDS011;3163;51.516;4.000;2022-12-22T13:27:20;5.50;;;4.57;;
6259;SDS011;3163;51.516;4.000;2022-12-22T13:29:47;8.00;;;4.60;;
6259;SDS011;3163;51.516;4.000;2022-12-22T13:34:51;8.10;;;4.20;;
6259;SDS011;3163;51.516;4.000;2022-12-22T13:37:56;5.07;;;3.60;;
6259;SDS011;3163;51.516;4.000;2022-12-22T13:40:23;4.40;;;3.83;;
6259;SDS011;3163;51.516;4.000;2022-12-22T13:42:55;6.57;;;4.50;;
6259;SDS011;3163;51.516;4.000;2022-12-22T13:45:36;6.17;;;3.90;;
6259;SDS011;3163;51.516;4.000;2022-12-22T13:48:13;5.37;;;3.93;;
6259;SDS011;3163;51.516;4.000;2022-12-22T13:50:44;4.70;;;4.03;;
6259;SDS011;3163;51.516;4.000;2022-12-22T13:53:30;5.77;;;3.80;;
6259;SDS011;3163;51.516;4.000;2022-12-22T13:56:06;4.67;;;3.80;;
6259;SDS011;3163;51.516;4.000;2022-12-22T13:58:36;4.57;;;3.90;;
6259;SDS011;3163;51.516;4.000;2022-12-22T14:03:34;3.50;;;3.17;;
6259;SDS011;3163;51.516;4.000;2022-12-22T14:09:12;5.60;;;3.30;;
6259;SDS011;3163;51.516;4.000;2022-12-22T14:11:40;5.13;;;3.40;;
6259;SDS011;3163;51.516;4.000;2022-12-22T14:14:08;4.70;;;3.10;;
6259;SDS011;3163;51.516;4.000;2022-12-22T14:16:43;4.97;;;3.10;;
6259;SDS011;3163;51.516;4.000;2022-12-22T14:19:12;6.30;;;3.10;;
6259;SDS011;3163;51.516;4.000;2022-12-22T14:21:40;3.53;;;3.17;;
6259;SDS011;3163;51.516;4.000;2022-12-22T14:24:09;4.63;;;3.53;;
6259;SDS011;3163;51.516;4.000;2022-12-22T14:26:43;3.97;;;3.17;;
6259;SDS011;3163;51.516;4.000;2022-12-22T14:29:12;4.93;;;2.80;;
6259;SDS011;3163;51.516;4.000;2022-12-22T14:31:51;3.30;;;2.93;;
6259;SDS011;3163;51.516;4.000;2022-12-22T14:34:31;2.83;;;2.60;;
6259;SDS011;3163;51.516;4.000;2022-12-22T14:36:59;2.80;;;2.60;;
6259;SDS011;3163;51.516;4.000;2022-12-22T14:39:30;3.60;;;2.97;;
6259;SDS011;3163;51.516;4.000;2022-12-22T14:42:00;4.07;;;3.10;;
6259;SDS011;3163;51.516;4.000;2022-12-22T14:44:41;5.03;;;3.10;;
6259;SDS011;3163;51.516;4.000;2022-12-22T14:49:51;3.20;;;2.90;;
6259;SDS011;3163;51.516;4.000;2022-12-22T14:54:52;3.53;;;2.93;;
6259;SDS011;3163;51.516;4.000;2022-12-22T14:57:28;4.30;;;2.40;;
6259;SDS011;3163;51.516;4.000;2022-12-22T15:00:24;2.87;;;2.50;;
6259;SDS011;3163;51.516;4.000;2022-12-22T15:02:48;2.93;;;2.70;;
6259;SDS011;3163;51.516;4.000;2022-12-22T15:05:26;3.20;;;2.60;;
6259;SDS011;3163;51.516;4.000;2022-12-22T15:07:54;3.50;;;2.27;;
6259;SDS011;3163;51.516;4.000;2022-12-22T15:10:21;2.63;;;2.43;;
6259;SDS011;3163;51.516;4.000;2022-12-22T15:12:49;2.97;;;2.50;;
6259;SDS011;3163;51.516;4.000;2022-12-22T15:15:20;2.93;;;2.43;;
6259;SDS011;3163;51.516;4.000;2022-12-22T15:17:55;3.20;;;2.90;;
6259;SDS011;3163;51.516;4.000;2022-12-22T15:20:21;3.17;;;2.87;;
6259;SDS011;3163;51.516;4.000;2022-12-22T15:22:49;3.43;;;2.50;;
6259;SDS011;3163;51.516;4.000;2022-12-22T15:25:19;2.60;;;2.30;;
6259;SDS011;3163;51.516;4.000;2022-12-22T15:27:46;3.27;;;2.13;;
6259;SDS011;3163;51.516;4.000;2022-12-22T15:30:14;2.47;;;2.27;;
6259;SDS011;3163;51.516;4.000;2022-12-22T15:32:44;3.67;;;2.20;;
6259;SDS011;3163;51.516;4.000;2022-12-22T15:35:24;4.97;;;2.97;;
6259;SDS011;3163;51.516;4.000;2022-12-22T15:37:55;3.30;;;2.73;;
6259;SDS011;3163;51.516;4.000;2022-12-22T15:40:21;2.63;;;2.23;;
6259;SDS011;3163;51.516;4.000;2022-12-22T15:42:48;3.20;;;2.47;;
6259;SDS011;3163;51.516;4.000;2022-12-22T15:45:15;2.90;;;2.07;;
6259;SDS011;3163;51.516;4.000;2022-12-22T15:47:43;2.57;;;2.17;;
6259;SDS011;3163;51.516;4.000;2022-12-22T15:50:14;2.43;;;2.03;;
6259;SDS011;3163;51.516;4.000;2022-12-22T15:52:47;3.10;;;2.57;;
6259;SDS011;3163;51.516;4.000;2022-12-22T15:55:16;3.93;;;2.47;;
6259;SDS011;3163;51.516;4.000;2022-12-22T15:57:42;3.07;;;2.10;;
6259;SDS011;3163;51.516;4.000;2022-12-22T16:00:11;3.83;;;2.43;;
6259;SDS011;3163;51.516;4.000;2022-12-22T16:02:37;2.20;;;2.00;;
6259;SDS011;3163;51.516;4.000;2022-12-22T16:05:03;2.47;;;2.27;;
6259;SDS011;3163;51.516;4.000;2022-12-22T16:07:30;5.33;;;2.70;;
6259;SDS011;3163;51.516;4.000;2022-12-22T16:09:56;4.10;;;2.70;;
6259;SDS011;3163;51.516;4.000;2022-12-22T16:12:22;3.70;;;2.27;;
6259;SDS011;3163;51.516;4.000;2022-12-22T16:14:49;2.57;;;2.03;;
6259;SDS011;3163;51.516;4.000;2022-12-22T16:17:20;3.50;;;2.20;;
6259;SDS011;3163;51.516;4.000;2022-12-22T16:19:47;3.73;;;3.37;;
6259;SDS011;3163;51.516;4.000;2022-12-22T16:22:14;4.43;;;2.13;;
6259;SDS011;3163;51.516;4.000;2022-12-22T16:24:43;2.07;;;1.87;;
6259;SDS011;3163;51.516;4.000;2022-12-22T16:27:12;2.30;;;1.70;;
6259;SDS011;3163;51.516;4.000;2022-12-22T16:29:38;2.17;;;1.97;;
6259;SDS011;3163;51.516;4.000;2022-12-22T16:32:14;2.63;;;2.40;;
6259;SDS011;3163;51.516;4.000;2022-12-22T16:34:43;3.17;;;2.23;;
6259;SDS011;3163;51.516;4.000;2022-12-22T16:37:09;4.53;;;2.23;;
6259;SDS011;3163;51.516;4.000;2022-12-22T16:39:34;3.43;;;2.20;;
6259;SDS011;3163;51.516;4.000;2022-12-22T16:42:00;2.63;;;1.97;;
6259;SDS011;3163;51.516;4.000;2022-12-22T16:44:26;3.87;;;2.30;;
6259;SDS011;3163;51.516;4.000;2022-12-22T16:46:51;2.80;;;2.30;;
6259;SDS011;3163;51.516;4.000;2022-12-22T16:49:17;3.13;;;1.83;;
6259;SDS011;3163;51.516;4.000;2022-12-22T16:51:48;5.63;;;2.83;;
6259;SDS011;3163;51.516;4.000;2022-12-22T16:54:16;3.60;;;1.87;;
6259;SDS011;3163;51.516;4.000;2022-12-22T16:56:42;3.90;;;2.20;;
6259;SDS011;3163;51.516;4.000;2022-12-22T16:59:11;4.37;;;2.40;;
6259;SDS011;3163;51.516;4.000;2022-12-22T17:01:37;6.20;;;2.47;;
6259;SDS011;3163;51.516;4.000;2022-12-22T17:04:13;1.70;;;1.60;;
6259;SDS011;3163;51.516;4.000;2022-12-22T17:06:42;2.30;;;2.10;;
6259;SDS011;3163;51.516;4.000;2022-12-22T17:09:13;6.43;;;2.03;;
6259;SDS011;3163;51.516;4.000;2022-12-22T17:11:43;2.37;;;2.17;;
6259;SDS011;3163;51.516;4.000;2022-12-22T17:14:52;2.10;;;1.90;;
6259;SDS011;3163;51.516;4.000;2022-12-22T17:17:00;4.07;;;2.10;;
6259;SDS011;3163;51.516;4.000;2022-12-22T17:19:26;2.57;;;1.83;;
6259;SDS011;3163;51.516;4.000;2022-12-22T17:21:52;4.40;;;2.10;;
6259;SDS011;3163;51.516;4.000;2022-12-22T17:24:21;1.73;;;1.60;;
6259;SDS011;3163;51.516;4.000;2022-12-22T17:26:47;1.70;;;1.03;;
6259;SDS011;3163;51.516;4.000;2022-12-22T17:29:18;3.40;;;2.27;;
6259;SDS011;3163;51.516;4.000;2022-12-22T17:31:47;3.40;;;2.57;;
6259;SDS011;3163;51.516;4.000;2022-12-22T17:34:14;4.17;;;2.00;;
6259;SDS011;3163;51.516;4.000;2022-12-22T17:36:41;6.07;;;2.27;;
6259;SDS011;3163;51.516;4.000;2022-12-22T17:39:11;5.87;;;2.30;;